Time;durP1;ratioP1;P1;durP2;ratioP2;P2;SDS_P1;SDS_P2;PMS_P1;PMS_P2;Temp;Humidity;BMP_temperature;BMP_pressure;BME280_temperature;BME280_humidity;BME280_pressure;Samples;Min_cycle;Max_cycle;Signal;HPM_P1;HPM_P2
2021/10/25 00:02:09;;;;;;;24.10;11.02;;;;;;;;;;4898127;29;20025;-69
2021/10/25 00:04:35;;;;;;;23.65;11.10;;;;;;;;;;4897898;29;20369;-71
2021/10/25 00:07:02;;;;;;;19.10;10.73;;;;;;;;;;4881178;29;20036;-69
2021/10/25 00:09:28;;;;;;;20.65;10.20;;;;;;;;;;4897377;29;20038;-69
2021/10/25 00:11:54;;;;;;;26.42;11.35;;;;;;;;;;4897745;29;20123;-70
2021/10/25 00:14:20;;;;;;;25.63;11.45;;;;;;;;;;4897899;29;20131;-70
2021/10/25 00:16:48;;;;;;;19.88;9.80;;;;;;;;;;4897532;29;20048;-69
2021/10/25 00:19:14;;;;;;;21.88;11.07;;;;;;;;;;4897520;29;20039;-70
2021/10/25 00:21:41;;;;;;;21.85;11.20;;;;;;;;;;4897547;29;20069;-71
2021/10/25 00:24:07;;;;;;;24.10;11.70;;;;;;;;;;4897476;29;20111;-71
2021/10/25 00:26:34;;;;;;;24.33;11.80;;;;;;;;;;4897560;29;20035;-71
2021/10/25 00:29:00;;;;;;;23.33;12.00;;;;;;;;;;4897657;29;20032;-71
2021/10/25 00:31:26;;;;;;;22.17;11.52;;;;;;;;;;4897371;29;20028;-71
2021/10/25 00:33:53;;;;;;;25.75;12.13;;;;;;;;;;4880110;29;20041;-70
2021/10/25 00:36:19;;;;;;;22.65;11.13;;;;;;;;;;4897313;29;20028;-71
2021/10/25 00:38:45;;;;;;;24.88;11.50;;;;;;;;;;4897162;29;20109;-70
2021/10/25 00:41:12;;;;;;;25.02;12.23;;;;;;;;;;4897208;29;20552;-71
2021/10/25 00:43:38;;;;;;;27.67;12.82;;;;;;;;;;4896884;29;20482;-71
2021/10/25 00:46:06;;;;;;;27.27;13.15;;;;;;;;;;4896938;29;20111;-71
2021/10/25 00:48:34;;;;;;;25.88;12.30;;;;;;;;;;4897118;29;20076;-71
2021/10/25 00:51:00;;;;;;;23.55;11.82;;;;;;;;;;4897251;29;20033;-70
2021/10/25 00:53:26;;;;;;;23.20;12.25;;;;;;;;;;4896711;29;20068;-71
2021/10/25 00:55:52;;;;;;;23.98;12.55;;;;;;;;;;4896690;29;20080;-71
2021/10/25 00:58:18;;;;;;;23.48;11.25;;;;;;;;;;4897007;29;20130;-71
2021/10/25 01:00:44;;;;;;;22.33;11.48;;;;;;;;;;4897001;29;20033;-69
2021/10/25 01:03:10;;;;;;;28.90;12.90;;;;;;;;;;4896853;29;20020;-70
2021/10/25 01:05:36;;;;;;;29.10;12.95;;;;;;;;;;4896744;29;20040;-71
2021/10/25 01:08:03;;;;;;;27.08;12.63;;;;;;;;;;4897261;29;20033;-71
2021/10/25 01:10:30;;;;;;;25.23;13.10;;;;;;;;;;4896464;29;20044;-70
2021/10/25 01:12:57;;;;;;;25.92;13.27;;;;;;;;;;4896817;29;20044;-69
2021/10/25 01:15:23;;;;;;;22.73;11.95;;;;;;;;;;4896377;29;20077;-71
2021/10/25 01:17:57;;;;;;;26.10;13.15;;;;;;;;;;4896941;29;20099;-70
2021/10/25 01:20:24;;;;;;;28.73;14.60;;;;;;;;;;4896433;29;20095;-69
2021/10/25 01:22:50;;;;;;;28.35;13.68;;;;;;;;;;4896305;29;20048;-70
2021/10/25 01:25:16;;;;;;;30.30;14.60;;;;;;;;;;4896367;29;20033;-69
2021/10/25 01:27:42;;;;;;;27.02;14.55;;;;;;;;;;4896571;29;20063;-71
2021/10/25 01:30:08;;;;;;;31.25;15.70;;;;;;;;;;4896358;29;20531;-70
2021/10/25 01:32:34;;;;;;;31.63;15.75;;;;;;;;;;4896264;29;20477;-69
2021/10/25 01:35:00;;;;;;;28.40;14.60;;;;;;;;;;4896152;29;20484;-70
2021/10/25 01:37:27;;;;;;;30.60;15.90;;;;;;;;;;4896282;29;20104;-70
2021/10/25 01:39:53;;;;;;;34.20;16.85;;;;;;;;;;4896040;29;20055;-69
2021/10/25 01:42:20;;;;;;;28.15;15.65;;;;;;;;;;4896371;29;20032;-71
2021/10/25 01:44:46;;;;;;;30.00;16.70;;;;;;;;;;4896223;29;20077;-69
2021/10/25 01:47:12;;;;;;;27.83;16.25;;;;;;;;;;4896126;29;20056;-70
2021/10/25 01:49:38;;;;;;;31.40;16.08;;;;;;;;;;4896215;29;20437;-70
2021/10/25 01:52:05;;;;;;;29.92;16.80;;;;;;;;;;4895677;29;20064;-70
2021/10/25 01:54:31;;;;;;;30.13;16.27;;;;;;;;;;4895046;29;20044;-70
2021/10/25 01:56:57;;;;;;;29.83;16.85;;;;;;;;;;4896020;29;20536;-70
2021/10/25 01:59:23;;;;;;;35.90;16.60;;;;;;;;;;4895956;29;20032;-71
2021/10/25 02:01:50;;;;;;;29.45;15.80;;;;;;;;;;4897003;29;20089;-70
2021/10/25 02:04:16;;;;;;;30.88;16.63;;;;;;;;;;4897532;29;20432;-70
2021/10/25 02:06:42;;;;;;;31.30;16.42;;;;;;;;;;4897078;29;20039;-69
2021/10/25 02:09:08;;;;;;;34.53;16.70;;;;;;;;;;4895731;29;20033;-70
2021/10/25 02:11:35;;;;;;;31.42;16.77;;;;;;;;;;4895195;29;20059;-70
2021/10/25 02:14:02;;;;;;;30.67;16.42;;;;;;;;;;4895920;29;20065;-70
2021/10/25 02:16:28;;;;;;;33.75;16.58;;;;;;;;;;4895707;29;20025;-70
2021/10/25 02:18:54;;;;;;;31.02;16.40;;;;;;;;;;4895685;29;20389;-69
2021/10/25 02:21:21;;;;;;;32.15;16.60;;;;;;;;;;4895922;29;20029;-69
2021/10/25 02:23:48;;;;;;;30.13;16.63;;;;;;;;;;4895420;29;20044;-70
2021/10/25 02:26:14;;;;;;;34.13;17.67;;;;;;;;;;4895967;29;20040;-70
2021/10/25 02:28:40;;;;;;;31.15;16.55;;;;;;;;;;4895864;29;20025;-70
2021/10/25 02:31:06;;;;;;;30.58;17.10;;;;;;;;;;4895574;29;20731;-70
2021/10/25 02:33:33;;;;;;;34.97;17.40;;;;;;;;;;4895643;29;20088;-70
2021/10/25 02:35:59;;;;;;;30.48;16.80;;;;;;;;;;4896425;29;20032;-69
2021/10/25 02:38:25;;;;;;;33.00;16.70;;;;;;;;;;4896220;29;20032;-70
2021/10/25 02:40:51;;;;;;;27.55;15.75;;;;;;;;;;4878853;29;20032;-70
2021/10/25 02:43:17;;;;;;;30.80;16.27;;;;;;;;;;4895703;29;20041;-71
2021/10/25 02:45:43;;;;;;;30.50;15.90;;;;;;;;;;4895597;29;20045;-69
2021/10/25 02:48:11;;;;;;;32.92;16.15;;;;;;;;;;4895612;29;20033;-69
2021/10/25 02:50:38;;;;;;;32.08;16.60;;;;;;;;;;4895754;29;20027;-69
2021/10/25 02:53:08;;;;;;;33.83;18.33;;;;;;;;;;4895465;29;20046;-70
2021/10/25 02:55:35;;;;;;;35.55;17.55;;;;;;;;;;4895458;29;20025;-70
2021/10/25 02:58:01;;;;;;;33.72;18.17;;;;;;;;;;4895802;29;20025;-70
2021/10/25 03:00:27;;;;;;;36.35;18.20;;;;;;;;;;4895536;29;20043;-69
2021/10/25 03:02:54;;;;;;;36.33;18.55;;;;;;;;;;4895242;29;20029;-69
2021/10/25 03:05:20;;;;;;;32.85;18.27;;;;;;;;;;4896628;29;20036;-70
2021/10/25 03:07:46;;;;;;;34.65;18.02;;;;;;;;;;4898942;29;20064;-69
2021/10/25 03:10:13;;;;;;;33.90;18.50;;;;;;;;;;4898584;29;20056;-70
2021/10/25 03:12:39;;;;;;;35.42;18.15;;;;;;;;;;4899152;29;20072;-69
2021/10/25 03:15:06;;;;;;;34.72;18.38;;;;;;;;;;4898873;29;20042;-69
2021/10/25 03:17:32;;;;;;;33.17;17.65;;;;;;;;;;4898625;29;20029;-69
2021/10/25 03:19:59;;;;;;;32.58;18.17;;;;;;;;;;4898699;29;20079;-69
2021/10/25 03:22:25;;;;;;;35.80;17.63;;;;;;;;;;4898322;29;20492;-69
2021/10/25 03:24:52;;;;;;;33.65;17.13;;;;;;;;;;4898188;29;20401;-70
2021/10/25 03:27:18;;;;;;;33.45;18.27;;;;;;;;;;4898390;29;20036;-70
2021/10/25 03:29:45;;;;;;;32.10;17.77;;;;;;;;;;4898528;29;20029;-70
2021/10/25 03:32:11;;;;;;;32.60;17.15;;;;;;;;;;4898547;29;20024;-71
2021/10/25 03:34:37;;;;;;;31.00;17.15;;;;;;;;;;4898248;29;20049;-71
2021/10/25 03:37:03;;;;;;;33.63;17.75;;;;;;;;;;4898428;29;20476;-71
2021/10/25 03:39:32;;;;;;;36.40;19.25;;;;;;;;;;4898430;29;20141;-71
2021/10/25 03:42:00;;;;;;;35.08;18.67;;;;;;;;;;4898355;29;20084;-71
2021/10/25 03:44:37;;;;;;;38.40;19.38;;;;;;;;;;4898322;29;20032;-71
2021/10/25 03:47:08;;;;;;;37.03;19.17;;;;;;;;;;4898165;29;20028;-71
2021/10/25 03:52:48;;;;;;;32.22;17.92;;;;;;;;;;4840019;29;20065;-71
2021/10/25 03:56:05;;;;;;;34.38;18.13;;;;;;;;;;4839845;29;20057;-70
2021/10/25 04:27:46;;;;;;;38.50;19.25;;;;;;;;;;4854730;29;20175;-68
2021/10/25 04:30:13;;;;;;;39.35;19.60;;;;;;;;;;4897671;29;20100;-70
2021/10/25 04:32:39;;;;;;;37.58;18.63;;;;;;;;;;4897353;29;20077;-69
2021/10/25 04:35:05;;;;;;;39.45;18.75;;;;;;;;;;4897359;29;20032;-70
2021/10/25 04:37:32;;;;;;;38.90;18.17;;;;;;;;;;4897537;29;20032;-71
2021/10/25 04:39:58;;;;;;;38.42;19.05;;;;;;;;;;4896885;29;20037;-70
2021/10/25 04:42:24;;;;;;;41.25;19.00;;;;;;;;;;4897058;29;20036;-71
2021/10/25 04:44:50;;;;;;;35.97;18.42;;;;;;;;;;4897129;29;20165;-71
2021/10/25 04:47:16;;;;;;;36.05;18.77;;;;;;;;;;4896831;29;20108;-71
2021/10/25 04:49:42;;;;;;;35.70;18.40;;;;;;;;;;4896924;29;20049;-71
2021/10/25 04:52:10;;;;;;;35.20;18.52;;;;;;;;;;4896506;29;20044;-70
2021/10/25 04:54:37;;;;;;;37.53;18.35;;;;;;;;;;4896766;29;20044;-70
2021/10/25 04:57:03;;;;;;;35.15;18.30;;;;;;;;;;4896749;29;20062;-71
2021/10/25 04:59:29;;;;;;;39.20;18.85;;;;;;;;;;4896704;29;20111;-71
2021/10/25 05:01:55;;;;;;;38.10;18.92;;;;;;;;;;4896339;29;20385;-71
2021/10/25 05:04:21;;;;;;;35.47;18.63;;;;;;;;;;4896701;29;20100;-71
2021/10/25 05:06:48;;;;;;;36.15;20.15;;;;;;;;;;4896556;29;20491;-70
2021/10/25 05:09:14;;;;;;;35.47;20.20;;;;;;;;;;4896401;29;20119;-71
2021/10/25 05:11:40;;;;;;;44.13;20.48;;;;;;;;;;4896718;29;20063;-70
2021/10/25 05:14:07;;;;;;;42.05;21.17;;;;;;;;;;4896538;29;20060;-69
2021/10/25 05:16:33;;;;;;;38.88;20.00;;;;;;;;;;4896430;29;20084;-70
2021/10/25 05:18:59;;;;;;;39.30;20.15;;;;;;;;;;4896606;29;20468;-69
2021/10/25 05:21:26;;;;;;;45.53;21.98;;;;;;;;;;4896427;29;20666;-70
2021/10/25 05:23:52;;;;;;;43.67;21.77;;;;;;;;;;4879734;29;20036;-71
2021/10/25 05:26:18;;;;;;;44.83;22.17;;;;;;;;;;4895928;29;20465;-70
2021/10/25 05:28:44;;;;;;;45.83;22.30;;;;;;;;;;4896056;29;20033;-69
2021/10/25 05:31:11;;;;;;;46.03;22.55;;;;;;;;;;4896496;29;20066;-74
2021/10/25 05:33:37;;;;;;;51.00;25.15;;;;;;;;;;4896163;29;20033;-71
2021/10/25 05:36:04;;;;;;;51.17;25.48;;;;;;;;;;4896410;29;20564;-70
2021/10/25 05:38:30;;;;;;;54.83;24.63;;;;;;;;;;4896453;29;20384;-69
2021/10/25 05:40:56;;;;;;;52.13;26.48;;;;;;;;;;4896184;29;20545;-68
2021/10/25 05:43:22;;;;;;;50.55;25.60;;;;;;;;;;4896226;29;20393;-70
2021/10/25 05:45:49;;;;;;;54.33;26.42;;;;;;;;;;4896436;29;20479;-68
2021/10/25 05:48:15;;;;;;;53.60;27.13;;;;;;;;;;4895969;29;20021;-71
2021/10/25 05:50:43;;;;;;;58.85;30.38;;;;;;;;;;4896180;29;20035;-70
2021/10/25 05:53:09;;;;;;;59.38;28.98;;;;;;;;;;4896192;29;20079;-69
2021/10/25 05:55:37;;;;;;;56.75;30.23;;;;;;;;;;4896066;29;20033;-68
2021/10/25 05:58:05;;;;;;;72.40;31.33;;;;;;;;;;4895723;29;20040;-69
2021/10/25 06:00:36;;;;;;;66.13;33.40;;;;;;;;;;4896229;29;20033;-68
2021/10/25 06:03:03;;;;;;;76.70;33.67;;;;;;;;;;4895104;29;20029;-68
2021/10/25 06:05:30;;;;;;;73.50;33.78;;;;;;;;;;4895976;29;20153;-75
2021/10/25 06:07:58;;;;;;;76.95;34.33;;;;;;;;;;4894825;29;20036;-72
2021/10/25 06:10:30;;;;;;;69.47;33.35;;;;;;;;;;4895557;29;20396;-66
2021/10/25 06:13:00;;;;;;;;;;;;;;;;;;4896366;29;20040;-64
2021/10/25 06:15:30;;;;;;;72.07;31.52;;;;;;;;;;4902185;29;19962;-72
2021/10/25 06:17:57;;;;;;;61.35;30.73;;;;;;;;;;4914241;29;20040;-69
2021/10/25 06:20:25;;;;;;;65.20;31.23;;;;;;;;;;4897629;29;20099;-68
2021/10/25 06:22:52;;;;;;;58.47;28.65;;;;;;;;;;4898359;29;20036;-70
2021/10/25 06:25:20;;;;;;;66.78;30.83;;;;;;;;;;4895542;29;20029;-69
2021/10/25 06:27:47;;;;;;;57.13;29.77;;;;;;;;;;4895625;29;20035;-70
2021/10/25 06:30:14;;;;;;;65.75;29.08;;;;;;;;;;4895741;29;20028;-69
2021/10/25 06:32:40;;;;;;;62.05;28.83;;;;;;;;;;4895325;29;20054;-69
2021/10/25 06:35:09;;;;;;;62.20;28.70;;;;;;;;;;4894516;29;20072;-67
2021/10/25 06:37:49;;;;;;;56.30;27.75;;;;;;;;;;4893831;29;20127;-66
2021/10/25 06:40:17;;;;;;;52.25;25.65;;;;;;;;;;4896164;29;20032;-67
2021/10/25 06:42:43;;;;;;;57.00;26.55;;;;;;;;;;4899653;29;20052;-71
2021/10/25 06:45:14;;;;;;;38.42;20.10;;;;;;;;;;4899488;29;20032;-66
2021/10/25 06:47:40;;;;;;;45.40;22.38;;;;;;;;;;4899049;29;20060;-68
2021/10/25 06:50:06;;;;;;;43.53;20.27;;;;;;;;;;4899526;29;20037;-66
2021/10/25 06:52:33;;;;;;;32.38;17.48;;;;;;;;;;4898983;29;20561;-69
2021/10/25 06:54:59;;;;;;;31.25;17.23;;;;;;;;;;4899102;29;20112;-69
2021/10/25 06:57:26;;;;;;;28.80;17.35;;;;;;;;;;4899183;29;20461;-69
2021/10/25 06:59:52;;;;;;;30.65;16.30;;;;;;;;;;4899390;29;20433;-70
2021/10/25 07:02:19;;;;;;;32.60;17.48;;;;;;;;;;4898957;29;20032;-72
2021/10/25 07:04:48;;;;;;;30.35;17.00;;;;;;;;;;4899047;29;20029;-72
2021/10/25 07:07:16;;;;;;;32.30;17.48;;;;;;;;;;4899157;29;20052;-69
2021/10/25 07:09:43;;;;;;;150.65;53.33;;;;;;;;;;4898606;29;20056;-72
2021/10/25 07:12:09;;;;;;;34.22;17.67;;;;;;;;;;4898947;29;20492;-71
2021/10/25 07:14:38;;;;;;;50.67;20.45;;;;;;;;;;4899843;29;20037;-72
2021/10/25 07:22:42;;;;;;;34.58;17.65;;;;;;;;;;4911661;29;20050;-71
2021/10/25 08:05:44;;;;;;;26.08;13.98;;;;;;;;;;4876521;29;20378;-74
2021/10/25 08:08:30;;;;;;;25.15;14.05;;;;;;;;;;4850563;29;20129;-72
2021/10/25 08:11:08;;;;;;;28.15;13.15;;;;;;;;;;4860274;29;21212;-73
2021/10/25 08:13:38;;;;;;;27.63;13.57;;;;;;;;;;4856757;29;20288;-71
2021/10/25 08:16:20;;;;;;;25.88;13.65;;;;;;;;;;4856316;29;20033;-68
2021/10/25 08:21:18;;;;;;;24.20;10.88;;;;;;;;;;4898836;29;20034;-71
2021/10/25 08:23:45;;;;;;;22.25;10.02;;;;;;;;;;4914970;29;20051;-67
2021/10/25 08:26:11;;;;;;;19.77;8.45;;;;;;;;;;4914312;29;20028;-68
2021/10/25 08:28:38;;;;;;;12.95;6.85;;;;;;;;;;4914227;29;20028;-69
2021/10/25 08:31:06;;;;;;;18.98;7.35;;;;;;;;;;4915203;29;20496;-71
2021/10/25 08:41:41;;;;;;;16.73;8.00;;;;;;;;;;4857281;29;20066;-71
2021/10/25 08:44:07;;;;;;;16.35;7.70;;;;;;;;;;4856316;29;20041;-70
2021/10/25 08:46:33;;;;;;;12.95;7.25;;;;;;;;;;4840724;29;20497;-72
2021/10/25 08:48:59;;;;;;;13.73;6.95;;;;;;;;;;4857350;29;20098;-72
2021/10/25 08:51:26;;;;;;;16.45;8.02;;;;;;;;;;4856769;29;20037;-72
2021/10/25 08:53:52;;;;;;;16.17;8.20;;;;;;;;;;4856406;29;20057;-71
2021/10/25 08:56:19;;;;;;;15.02;7.75;;;;;;;;;;4857017;29;20594;-70
2021/10/25 08:58:51;;;;;;;18.52;7.68;;;;;;;;;;4856303;29;20060;-70
2021/10/25 09:01:27;;;;;;;14.05;7.72;;;;;;;;;;4856934;29;20433;-72
2021/10/25 09:04:07;;;;;;;11.35;6.93;;;;;;;;;;4854469;29;20049;-70
2021/10/25 09:06:34;;;;;;;13.48;6.75;;;;;;;;;;4851367;29;20021;-67
2021/10/25 09:09:00;;;;;;;15.98;7.88;;;;;;;;;;4855163;29;20148;-65
2021/10/25 09:11:31;;;;;;;14.18;7.00;;;;;;;;;;4839355;29;20045;-67
2021/10/25 09:13:58;;;;;;;18.13;7.90;;;;;;;;;;4847679;29;20124;-69
2021/10/25 09:16:24;;;;;;;15.40;7.90;;;;;;;;;;4899766;29;20059;-64
2021/10/25 09:18:50;;;;;;;11.35;7.15;;;;;;;;;;4913602;29;20079;-66
2021/10/25 09:21:16;;;;;;;14.15;7.55;;;;;;;;;;4913850;29;20028;-64
2021/10/25 09:23:44;;;;;;;16.23;7.38;;;;;;;;;;4913394;29;20032;-66
2021/10/25 09:26:16;;;;;;;17.75;7.72;;;;;;;;;;4912536;29;20039;-66
2021/10/25 09:28:52;;;;;;;15.07;6.68;;;;;;;;;;4912580;29;20111;-67
2021/10/25 09:31:24;;;;;;;15.23;7.28;;;;;;;;;;4913472;29;20016;-68
2021/10/25 09:33:54;;;;;;;14.90;6.35;;;;;;;;;;4913719;29;20051;-66
2021/10/25 09:36:20;;;;;;;15.30;6.53;;;;;;;;;;4912999;29;20039;-67
2021/10/25 09:38:55;;;;;;;12.38;6.75;;;;;;;;;;4913951;29;20020;-67
2021/10/25 09:49:01;;;;;;;12.98;6.70;;;;;;;;;;4902263;29;20092;-66
2021/10/25 09:49:28;;;;;;;17.02;7.63;;;;;;;;;;4894965;29;20044;-68
2021/10/25 09:51:55;;;;;;;12.00;7.05;;;;;;;;;;4908790;29;20020;-70
2021/10/25 09:54:22;;;;;;;13.15;6.40;;;;;;;;;;4908692;29;20032;-72
2021/10/25 09:57:13;;;;;;;14.75;6.85;;;;;;;;;;4895982;29;20036;-71
2021/10/25 09:59:49;;;;;;;12.05;6.47;;;;;;;;;;4914112;29;20047;-73
2021/10/25 10:02:15;;;;;;;14.20;6.60;;;;;;;;;;4913533;29;20498;-68
2021/10/25 10:04:45;;;;;;;13.65;6.40;;;;;;;;;;4913174;29;20039;-72
2021/10/25 10:07:12;;;;;;;12.77;6.60;;;;;;;;;;4912722;29;20024;-68
2021/10/25 10:09:42;;;;;;;13.25;6.63;;;;;;;;;;4912893;29;20095;-66
2021/10/25 10:12:08;;;;;;;12.93;6.68;;;;;;;;;;4912705;29;20034;-71
2021/10/25 10:14:35;;;;;;;11.38;6.57;;;;;;;;;;4913479;29;20072;-71
2021/10/25 10:17:02;;;;;;;14.43;7.05;;;;;;;;;;4917203;29;20060;-69
2021/10/25 10:19:29;;;;;;;15.68;7.85;;;;;;;;;;4907794;29;20028;-70
2021/10/25 10:21:58;;;;;;;14.38;7.70;;;;;;;;;;4916761;29;20031;-73
2021/10/25 10:24:31;;;;;;;14.38;7.40;;;;;;;;;;4917482;29;20028;-69
2021/10/25 10:26:57;;;;;;;;;;;;;;;;;;4913287;29;20900;-71
2021/10/25 10:29:25;;;;;;;14.95;7.85;;;;;;;;;;4916398;29;19997;-71
2021/10/25 10:32:01;;;;;;;15.23;8.05;;;;;;;;;;4916567;29;20032;-71
2021/10/25 10:34:38;;;;;;;14.35;8.27;;;;;;;;;;4900208;29;20040;-70
2021/10/25 10:37:04;;;;;;;17.38;7.47;;;;;;;;;;4899633;29;20028;-72
2021/10/25 10:39:30;;;;;;;17.85;6.97;;;;;;;;;;4916283;29;20036;-67
2021/10/25 10:41:58;;;;;;;18.63;7.95;;;;;;;;;;4916398;29;20032;-68
2021/10/25 10:44:27;;;;;;;16.90;8.00;;;;;;;;;;4915566;29;20094;-74
2021/10/25 10:47:00;;;;;;;13.43;7.25;;;;;;;;;;4916139;29;20023;-70
2021/10/25 10:49:56;;;;;;;14.70;8.27;;;;;;;;;;4912623;29;20016;-72
2021/10/25 10:52:43;;;;;;;13.45;7.72;;;;;;;;;;4909623;29;20043;-68
2021/10/25 10:55:18;;;;;;;14.88;8.30;;;;;;;;;;4896848;29;20385;-71
2021/10/25 11:00:34;;;;;;;20.92;9.00;;;;;;;;;;4912162;29;20024;-74
2021/10/25 11:03:01;;;;;;;18.13;8.93;;;;;;;;;;4911216;29;20117;-72
2021/10/25 11:05:34;;;;;;;20.90;11.25;;;;;;;;;;4915388;29;20480;-73
2021/10/25 11:08:09;;;;;;;20.55;9.85;;;;;;;;;;4910862;29;20040;-69
2021/10/25 11:10:38;;;;;;;22.33;9.00;;;;;;;;;;4915129;29;20044;-70
2021/10/25 11:13:07;;;;;;;20.20;9.77;;;;;;;;;;4915833;29;20040;-72
2021/10/25 11:15:40;;;;;;;15.93;8.48;;;;;;;;;;4915626;29;20474;-70
2021/10/25 11:18:06;;;;;;;18.38;8.85;;;;;;;;;;4911833;29;20055;-71
2021/10/25 11:20:33;;;;;;;18.27;8.93;;;;;;;;;;4915836;29;20031;-70
2021/10/25 11:23:03;;;;;;;17.50;8.85;;;;;;;;;;4908513;29;20028;-72
2021/10/25 11:25:36;;;;;;;15.07;7.50;;;;;;;;;;4913007;29;20039;-72
2021/10/25 11:28:12;;;;;;;15.50;8.50;;;;;;;;;;4916453;29;20032;-72
2021/10/25 11:30:38;;;;;;;13.93;7.50;;;;;;;;;;4912597;29;20484;-72
2021/10/25 11:33:05;;;;;;;15.85;7.47;;;;;;;;;;4916230;29;20031;-72
2021/10/25 11:35:31;;;;;;;16.90;8.35;;;;;;;;;;4916299;29;20476;-71
2021/10/25 11:38:01;;;;;;;16.60;8.27;;;;;;;;;;4915675;29;20629;-72
2021/10/25 11:40:28;;;;;;;15.32;8.07;;;;;;;;;;4910383;29;20097;-71
2021/10/25 11:42:59;;;;;;;15.00;7.80;;;;;;;;;;4897666;29;20021;-73
2021/10/25 11:45:25;;;;;;;16.83;8.68;;;;;;;;;;4897519;29;20115;-71
2021/10/25 11:47:52;;;;;;;15.90;7.70;;;;;;;;;;4897285;29;20131;-71
2021/10/25 11:50:19;;;;;;;13.52;7.05;;;;;;;;;;4897496;29;20033;-70
2021/10/25 11:52:48;;;;;;;14.55;7.30;;;;;;;;;;4914723;29;20028;-70
2021/10/25 11:55:18;;;;;;;14.32;7.57;;;;;;;;;;4916211;29;20091;-71
2021/10/25 11:57:49;;;;;;;16.05;6.88;;;;;;;;;;4916458;29;20032;-71
2021/10/25 12:00:16;;;;;;;12.60;7.35;;;;;;;;;;4904238;29;20043;-71
2021/10/25 12:02:44;;;;;;;14.65;7.05;;;;;;;;;;4897155;29;20486;-71
2021/10/25 12:05:10;;;;;;;15.93;7.65;;;;;;;;;;4897341;29;20484;-72
2021/10/25 12:07:47;;;;;;;13.00;6.70;;;;;;;;;;4897541;29;20468;-72
2021/10/25 12:10:14;;;;;;;14.90;7.10;;;;;;;;;;4896977;29;20059;-73
2021/10/25 12:12:40;;;;;;;14.35;6.55;;;;;;;;;;4897686;29;20036;-72
2021/10/25 12:15:06;;;;;;;13.38;7.05;;;;;;;;;;4897251;29;20798;-73
2021/10/25 12:17:34;;;;;;;10.13;5.78;;;;;;;;;;4896919;29;20111;-72
2021/10/25 12:20:05;;;;;;;14.45;6.70;;;;;;;;;;4897526;29;20028;-72
2021/10/25 12:22:31;;;;;;;10.45;5.32;;;;;;;;;;4897589;29;20040;-72
2021/10/25 12:24:58;;;;;;;13.10;6.72;;;;;;;;;;4880089;29;20036;-72
2021/10/25 12:27:36;;;;;;;9.00;5.25;;;;;;;;;;4897195;29;20064;-71
2021/10/25 12:30:14;;;;;;;12.63;5.68;;;;;;;;;;4897245;29;20039;-71
2021/10/25 12:32:58;;;;;;;12.77;6.60;;;;;;;;;;4896453;29;20414;-70
2021/10/25 12:35:44;;;;;;;13.55;6.20;;;;;;;;;;4896783;29;20092;-71
2021/10/25 12:38:13;;;;;;;8.95;5.25;;;;;;;;;;4896215;29;20024;-72
2021/10/25 12:40:41;;;;;;;11.88;5.65;;;;;;;;;;4896752;29;20032;-72
2021/10/25 12:43:08;;;;;;;12.15;6.25;;;;;;;;;;4896926;29;20032;-73
2021/10/25 12:45:40;;;;;;;9.80;5.28;;;;;;;;;;4896596;29;20032;-71
2021/10/25 12:48:06;;;;;;;10.32;5.75;;;;;;;;;;4896364;29;20029;-72
2021/10/25 12:50:34;;;;;;;16.77;6.25;;;;;;;;;;4896850;29;20036;-72
2021/10/25 12:53:03;;;;;;;10.63;5.38;;;;;;;;;;4879446;29;20035;-70
2021/10/25 12:55:30;;;;;;;13.57;5.28;;;;;;;;;;4896248;29;20556;-71
2021/10/25 12:57:56;;;;;;;13.20;6.22;;;;;;;;;;4896518;29;20025;-73
2021/10/25 13:00:22;;;;;;;13.32;6.18;;;;;;;;;;4879451;29;20036;-72
2021/10/25 13:02:52;;;;;;;10.50;5.28;;;;;;;;;;4896184;29;20033;-71
2021/10/25 13:05:19;;;;;;;16.63;6.13;;;;;;;;;;4896617;29;20492;-73
2021/10/25 13:07:46;;;;;;;12.25;6.50;;;;;;;;;;4896219;29;20028;-71
2021/10/25 13:10:12;;;;;;;13.82;6.45;;;;;;;;;;4896007;29;20052;-70
2021/10/25 13:12:38;;;;;;;13.73;6.22;;;;;;;;;;4896472;29;20039;-72
2021/10/25 13:15:05;;;;;;;12.15;5.93;;;;;;;;;;4895926;29;20037;-74
2021/10/25 13:17:31;;;;;;;12.32;5.45;;;;;;;;;;4895666;29;20487;-71
2021/10/25 13:19:57;;;;;;;9.93;4.97;;;;;;;;;;4879134;29;20447;-76
2021/10/25 13:22:23;;;;;;;13.27;5.82;;;;;;;;;;4877321;29;20132;-74
2021/10/25 13:24:49;;;;;;;12.38;5.93;;;;;;;;;;4896018;29;20025;-70
2021/10/25 13:27:16;;;;;;;13.13;5.60;;;;;;;;;;4897949;29;20025;-70
2021/10/25 13:29:43;;;;;;;10.63;5.55;;;;;;;;;;4896310;29;20048;-72
2021/10/25 13:32:09;;;;;;;13.65;5.68;;;;;;;;;;4895529;29;20388;-71
2021/10/25 13:34:35;;;;;;;11.00;5.95;;;;;;;;;;4897138;29;20064;-72
2021/10/25 13:37:01;;;;;;;10.82;6.10;;;;;;;;;;4895009;29;20035;-71
2021/10/25 13:39:27;;;;;;;12.35;5.65;;;;;;;;;;4895248;29;20124;-73
2021/10/25 13:41:54;;;;;;;11.38;6.07;;;;;;;;;;4878880;29;20441;-73
2021/10/25 13:44:21;;;;;;;15.57;6.20;;;;;;;;;;4895649;29;20035;-73
2021/10/25 13:46:47;;;;;;;16.40;5.68;;;;;;;;;;4895298;29;20032;-74
2021/10/25 13:49:13;;;;;;;13.15;5.75;;;;;;;;;;4895451;29;20033;-72
2021/10/25 13:51:39;;;;;;;12.63;6.30;;;;;;;;;;4893590;29;20472;-74
2021/10/25 13:54:06;;;;;;;15.55;7.07;;;;;;;;;;4894441;29;20096;-74
2021/10/25 13:56:32;;;;;;;14.73;6.30;;;;;;;;;;4894971;29;20025;-72
2021/10/25 13:58:59;;;;;;;8.43;5.20;;;;;;;;;;4895339;29;20035;-69
2021/10/25 14:01:25;;;;;;;13.38;5.80;;;;;;;;;;4895388;29;20036;-72
2021/10/25 14:03:52;;;;;;;12.98;5.18;;;;;;;;;;4895641;29;20025;-75
2021/10/25 14:06:27;;;;;;;15.32;5.75;;;;;;;;;;4895624;29;20048;-72
2021/10/25 14:08:54;;;;;;;10.90;5.43;;;;;;;;;;4894560;29;20037;-77
2021/10/25 14:11:22;;;;;;;13.35;5.55;;;;;;;;;;4895534;29;20157;-72
2021/10/25 14:18:40;;;;;;;15.75;6.40;;;;;;;;;;4895444;29;20488;-71
2021/10/25 14:21:06;;;;;;;15.18;6.95;;;;;;;;;;4895556;29;20064;-71
2021/10/25 14:23:32;;;;;;;13.82;6.80;;;;;;;;;;4894839;29;20104;-73
2021/10/25 14:25:59;;;;;;;13.30;6.85;;;;;;;;;;4895685;29;20063;-67
2021/10/25 14:28:29;;;;;;;13.35;5.57;;;;;;;;;;4897466;29;20025;-75
2021/10/25 14:30:55;;;;;;;12.20;5.80;;;;;;;;;;4895048;29;20033;-74
2021/10/25 14:33:21;;;;;;;14.40;6.53;;;;;;;;;;4895149;29;20024;-73
2021/10/25 14:35:47;;;;;;;12.23;5.80;;;;;;;;;;4895157;29;20047;-73
2021/10/25 14:38:25;;;;;;;12.23;5.85;;;;;;;;;;4894315;29;20495;-74
2021/10/25 14:43:32;;;;;;;10.65;6.15;;;;;;;;;;4895594;29;20029;-73
2021/10/25 14:46:06;;;;;;;12.25;6.00;;;;;;;;;;4895133;29;20029;-75
2021/10/25 14:48:49;;;;;;;11.57;6.05;;;;;;;;;;4895253;29;20020;-74
2021/10/25 14:54:05;;;;;;;11.43;6.10;;;;;;;;;;4894776;29;20135;-74
2021/10/25 14:56:32;;;;;;;15.30;6.00;;;;;;;;;;4895236;29;20132;-75
2021/10/25 14:58:58;;;;;;;11.52;6.07;;;;;;;;;;4895111;29;20025;-73
2021/10/25 15:01:24;;;;;;;12.45;5.72;;;;;;;;;;4895843;29;20035;-72
2021/10/25 15:03:50;;;;;;;14.57;6.70;;;;;;;;;;4898403;29;20059;-71
2021/10/25 15:06:17;;;;;;;14.88;5.85;;;;;;;;;;4897063;29;20128;-70
2021/10/25 15:08:43;;;;;;;14.77;6.47;;;;;;;;;;4898063;29;20027;-76
2021/10/25 15:11:09;;;;;;;14.15;6.20;;;;;;;;;;4911648;29;20071;-72
2021/10/25 15:13:35;;;;;;;13.82;5.95;;;;;;;;;;4915567;29;20079;-69
2021/10/25 15:16:01;;;;;;;13.70;6.68;;;;;;;;;;4915519;29;20044;-68
2021/10/25 15:18:27;;;;;;;16.17;6.93;;;;;;;;;;4915843;29;20396;-72
2021/10/25 15:20:54;;;;;;;16.92;6.78;;;;;;;;;;4916851;29;20071;-72
2021/10/25 15:23:20;;;;;;;18.73;6.95;;;;;;;;;;4915616;29;20050;-72
2021/10/25 15:25:53;;;;;;;14.60;7.03;;;;;;;;;;4915525;29;20469;-67
2021/10/25 15:28:20;;;;;;;17.35;6.85;;;;;;;;;;4915200;29;20491;-72
2021/10/25 15:30:46;;;;;;;13.75;6.07;;;;;;;;;;4915331;29;20028;-74
2021/10/25 15:33:13;;;;;;;16.33;6.43;;;;;;;;;;4916540;29;20083;-74
2021/10/25 15:35:39;;;;;;;11.43;6.25;;;;;;;;;;4916907;29;20040;-74
2021/10/25 15:38:05;;;;;;;15.75;6.68;;;;;;;;;;4916459;29;20107;-74
2021/10/25 15:40:31;;;;;;;14.75;6.72;;;;;;;;;;4916784;29;20043;-72
2021/10/25 15:42:58;;;;;;;14.98;6.82;;;;;;;;;;4916876;29;20095;-73
2021/10/25 15:45:24;;;;;;;12.88;6.63;;;;;;;;;;4916309;29;20028;-73
2021/10/25 15:47:51;;;;;;;18.63;7.10;;;;;;;;;;4916628;29;20024;-74
2021/10/25 15:50:25;;;;;;;14.45;6.93;;;;;;;;;;4916469;29;20103;-76
2021/10/25 15:53:18;;;;;;;13.50;6.85;;;;;;;;;;4899101;29;20115;-76
2021/10/25 15:55:46;;;;;;;18.00;7.35;;;;;;;;;;4912429;29;20111;-71
2021/10/25 15:58:12;;;;;;;17.70;8.15;;;;;;;;;;4916305;29;20079;-70
2021/10/25 16:00:38;;;;;;;18.50;8.57;;;;;;;;;;4916064;29;20032;-71
2021/10/25 16:03:08;;;;;;;14.68;7.70;;;;;;;;;;4916558;29;20070;-72
2021/10/25 16:05:35;;;;;;;17.27;7.82;;;;;;;;;;4916432;29;20041;-71
2021/10/25 16:08:01;;;;;;;18.02;8.63;;;;;;;;;;4915777;29;20032;-72
2021/10/25 16:10:27;;;;;;;15.68;8.43;;;;;;;;;;4915952;29;20048;-71
2021/10/25 16:12:53;;;;;;;19.10;9.15;;;;;;;;;;4915177;29;20115;-69
2021/10/25 16:15:19;;;;;;;21.25;9.27;;;;;;;;;;4915604;29;20116;-73
2021/10/25 16:17:46;;;;;;;23.08;10.68;;;;;;;;;;4915789;29;20031;-71